createdAt,value
2016-10-18T00:00:11.179Z,25.34
2016-10-18T00:01:21.714Z,25.35
2016-10-18T00:02:32.254Z,25.39
2016-10-18T00:03:42.797Z,25.36
2016-10-18T00:04:53.334Z,25.27
2016-10-18T00:06:03.914Z,25.34
2016-10-18T00:07:14.492Z,25.38
2016-10-18T00:08:39.558Z,25.38
2016-10-18T00:09:50.098Z,25.36
2016-10-18T00:11:00.576Z,25.29
2016-10-18T00:13:50.508Z,25.29
2016-10-18T00:15:00.928Z,25.14
2016-10-18T00:16:11.842Z,25.11
2016-10-18T00:17:36.912Z,25.01
2016-10-18T00:18:47.328Z,25.01
2016-10-18T00:19:57.749Z,24.92
2016-10-18T00:21:08.169Z,24.94
2016-10-18T00:22:18.581Z,24.89
2016-10-18T00:23:29.008Z,25.02
2016-10-18T00:24:39.429Z,24.93
2016-10-18T00:25:49.847Z,24.79
2016-10-18T00:27:00.264Z,24.71
2016-10-18T00:28:10.687Z,24.64
2016-10-18T00:29:21.117Z,24.7
2016-10-18T00:30:31.531Z,24.6
2016-10-18T00:31:42.438Z,24.52
2016-10-18T00:32:52.856Z,24.49
2016-10-18T00:34:03.277Z,24.49
2016-10-18T00:35:13.797Z,24.48
2016-10-18T00:36:25.101Z,24.36
2016-10-18T00:37:50.072Z,24.31
2016-10-18T00:39:00.532Z,24.37
2016-10-18T00:40:10.987Z,24.34
2016-10-18T00:41:21.404Z,24.34
2016-10-18T00:42:31.823Z,24.33
2016-10-18T00:43:42.240Z,24.34
2016-10-18T00:45:07.209Z,24.36
2016-10-18T00:46:17.724Z,24.33
2016-10-18T00:47:28.143Z,24.37
2016-10-18T00:48:38.563Z,24.45
2016-10-18T00:49:48.981Z,24.34
2016-10-18T00:50:59.406Z,24.42
2016-10-18T00:52:09.858Z,24.33
2016-10-18T00:53:20.278Z,24.42
2016-10-18T00:54:30.692Z,24.36
2016-10-18T00:55:41.113Z,24.34
2016-10-18T00:57:06.178Z,24.37
2016-10-18T00:58:31.145Z,24.34
2016-10-18T00:59:41.563Z,24.33
2016-10-18T01:00:51.988Z,24.39
2016-10-18T01:02:02.400Z,24.36
2016-10-18T01:03:12.822Z,24.39
2016-10-18T01:04:23.238Z,24.31
2016-10-18T01:05:33.657Z,24.34
2016-10-18T01:06:44.074Z,24.23
2016-10-18T01:07:54.491Z,24.27
2016-10-18T01:09:04.948Z,24.26
2016-10-18T01:10:15.373Z,24.23
2016-10-18T01:11:25.793Z,24.16
2016-10-18T01:12:36.206Z,24.23
2016-10-18T01:13:46.760Z,24.14
2016-10-18T01:14:57.177Z,24.11
2016-10-18T01:16:07.596Z,24.15
2016-10-18T01:18:43.076Z,24.16
2016-10-18T01:19:53.491Z,24.15
2016-10-18T01:22:28.877Z,24.12
2016-10-18T01:23:39.296Z,24.04
2016-10-18T01:25:04.264Z,24.04
2016-10-18T01:26:14.710Z,24.02
2016-10-18T01:27:25.127Z,23.94
2016-10-18T01:28:35.547Z,23.87
2016-10-18T01:29:45.971Z,23.72
2016-10-18T01:30:56.389Z,23.81
2016-10-18T01:32:07.315Z,23.74
2016-10-18T01:33:17.735Z,23.79
2016-10-18T01:34:28.147Z,23.63
2016-10-18T01:35:38.564Z,23.78
2016-10-18T01:36:48.981Z,23.74
2016-10-18T01:37:59.394Z,23.64
2016-10-18T01:39:09.812Z,23.64
2016-10-18T01:40:20.228Z,23.53
2016-10-18T01:41:30.752Z,23.45
2016-10-18T01:42:41.192Z,23.5
2016-10-18T01:43:51.605Z,23.44
2016-10-18T01:45:17.064Z,23.35
2016-10-18T01:46:27.579Z,23.38
2016-10-18T01:47:38.006Z,23.31
2016-10-18T01:48:48.423Z,23.34
2016-10-18T01:49:58.841Z,23.23
2016-10-18T01:51:09.269Z,23.18
2016-10-18T01:52:19.682Z,23.11
2016-10-18T01:53:30.102Z,23.09
2016-10-18T01:54:40.518Z,23.07
2016-10-18T01:55:50.940Z,23.18
2016-10-18T01:57:01.361Z,23.11
2016-10-18T01:58:11.882Z,23.21
2016-10-18T01:59:22.298Z,23.03
2016-10-18T02:00:32.717Z,23.14
2016-10-18T02:01:57.688Z,23.11
2016-10-18T02:03:08.109Z,22.97
2016-10-18T02:04:18.525Z,22.97
2016-10-18T02:05:28.943Z,23.01
2016-10-18T02:06:39.409Z,23.07
2016-10-18T02:07:49.825Z,23.06
2016-10-18T02:09:00.344Z,22.81
2016-10-18T02:10:10.816Z,22.99
2016-10-18T02:11:21.228Z,22.89
2016-10-18T02:12:31.653Z,22.85
2016-10-18T02:13:42.113Z,22.96
2016-10-18T02:14:52.526Z,22.99
2016-10-18T02:16:02.986Z,22.94
2016-10-18T02:17:13.455Z,22.91
2016-10-18T02:18:23.869Z,22.85
2016-10-18T02:19:34.286Z,22.88
2016-10-18T02:20:44.805Z,22.88
2016-10-18T02:21:55.220Z,22.85
2016-10-18T02:23:05.636Z,22.85
2016-10-18T02:24:16.048Z,22.78
2016-10-18T02:25:41.018Z,22.81
2016-10-18T02:26:51.433Z,22.79
2016-10-18T02:28:01.848Z,22.67
2016-10-18T02:29:12.281Z,22.66
2016-10-18T02:30:22.696Z,22.67
2016-10-18T02:31:33.289Z,22.7
2016-10-18T02:32:58.931Z,22.72
2016-10-18T02:34:09.380Z,22.74
2016-10-18T02:35:19.792Z,22.59
2016-10-18T02:36:30.313Z,22.54
2016-10-18T02:37:40.767Z,22.52
2016-10-18T02:38:51.177Z,22.44
2016-10-18T02:40:01.594Z,22.45
2016-10-18T02:41:12.014Z,22.33
2016-10-18T02:42:22.431Z,22.21
2016-10-18T02:43:32.876Z,22.35
2016-10-18T02:44:43.299Z,22.23
2016-10-18T02:45:53.713Z,22.36
2016-10-18T02:47:04.133Z,22.35
2016-10-18T02:48:14.556Z,22.41
2016-10-18T02:49:24.972Z,22.36
2016-10-18T02:50:35.415Z,22.39
2016-10-18T02:51:45.778Z,22.42
2016-10-18T02:52:56.103Z,22.38
2016-10-18T02:54:07.042Z,22.41
2016-10-18T02:55:17.370Z,22.2
2016-10-18T02:56:27.695Z,22.2
2016-10-18T02:57:38.083Z,22.19
2016-10-18T02:58:48.521Z,22.21
2016-10-18T02:59:59.064Z,22.24
2016-10-18T03:01:09.508Z,22.35
2016-10-18T03:02:19.951Z,22.36
2016-10-18T03:03:30.390Z,22.27
2016-10-18T03:04:40.839Z,22.38
2016-10-18T03:05:51.304Z,22.39
2016-10-18T03:07:01.752Z,22.38
2016-10-18T03:09:37.190Z,22.38
2016-10-18T03:10:47.666Z,22.33
2016-10-18T03:11:58.108Z,22.33
2016-10-18T03:13:08.566Z,22.33
2016-10-18T03:14:19.012Z,22.23
2016-10-18T03:15:29.455Z,22.12
2016-10-18T03:16:40.037Z,22.21
2016-10-18T03:18:05.035Z,22.17
2016-10-18T03:19:15.479Z,22.15
2016-10-18T03:20:40.474Z,22.15
2016-10-18T03:21:51.029Z,22.12
2016-10-18T03:23:01.519Z,22.11
2016-10-18T03:24:12.003Z,22.02
2016-10-18T03:26:47.531Z,21.91
2016-10-18T03:27:57.975Z,21.81
2016-10-18T03:29:08.433Z,21.91
2016-10-18T03:30:18.874Z,21.86
2016-10-18T03:31:29.356Z,21.79
2016-10-18T03:32:39.899Z,21.79
2016-10-18T03:33:50.347Z,21.7
2016-10-18T03:35:00.834Z,21.71
2016-10-18T03:36:11.276Z,21.82
2016-10-18T03:37:21.718Z,21.79
2016-10-18T03:38:32.166Z,21.77
2016-10-18T03:39:42.614Z,21.77
2016-10-18T03:40:53.053Z,21.83
2016-10-18T03:42:03.549Z,21.81
2016-10-18T03:43:13.993Z,21.77
2016-10-18T03:44:24.436Z,21.79
2016-10-18T03:45:34.882Z,21.89
2016-10-18T03:46:45.327Z,21.82
2016-10-18T03:47:55.773Z,21.83
2016-10-18T03:49:06.230Z,21.89
2016-10-18T03:50:16.775Z,21.98
2016-10-18T03:51:27.220Z,21.94
2016-10-18T03:52:37.706Z,21.91
2016-10-18T03:53:48.153Z,21.94
2016-10-18T03:54:58.598Z,21.86
2016-10-18T03:56:09.043Z,21.9
2016-10-18T03:57:19.486Z,21.91
2016-10-18T03:58:29.927Z,21.89
2016-10-18T03:59:40.377Z,21.98
2016-10-18T04:00:50.816Z,21.9
2016-10-18T04:02:01.360Z,21.93
2016-10-18T04:04:36.788Z,21.96
2016-10-18T04:05:47.271Z,21.98
2016-10-18T04:06:57.816Z,22.04
2016-10-18T04:08:08.263Z,22.08
2016-10-18T04:09:18.707Z,21.99
2016-10-18T04:10:29.186Z,22.02
2016-10-18T04:11:39.631Z,22.01
2016-10-18T04:12:50.121Z,22.09
2016-10-18T04:14:00.578Z,22.05
2016-10-18T04:15:11.057Z,22.09
2016-10-18T04:16:21.506Z,22.15
2016-10-18T04:17:31.952Z,22.01
2016-10-18T04:18:42.399Z,22.06
2016-10-18T04:19:52.843Z,21.98
2016-10-18T04:21:03.344Z,22.08
2016-10-18T04:22:13.882Z,21.99
2016-10-18T04:23:24.419Z,22.02
2016-10-18T04:24:34.955Z,22.17
2016-10-18T04:25:45.490Z,22.2
2016-10-18T04:26:56.026Z,22.12
2016-10-18T04:28:06.602Z,22.14
2016-10-18T04:29:17.133Z,22.17
2016-10-18T04:30:27.671Z,22.23
2016-10-18T04:31:38.205Z,22.11
2016-10-18T04:32:48.790Z,22.05
2016-10-18T04:33:59.325Z,21.99
2016-10-18T04:35:09.869Z,21.99
2016-10-18T04:36:20.506Z,22.05
2016-10-18T04:37:31.041Z,22.05
2016-10-18T04:38:41.582Z,21.93
2016-10-18T04:39:52.119Z,21.9
2016-10-18T04:41:02.652Z,21.93
2016-10-18T04:42:13.227Z,21.91
2016-10-18T04:43:23.763Z,21.81
2016-10-18T04:44:34.297Z,21.9
2016-10-18T04:45:44.835Z,21.82
2016-10-18T04:46:55.368Z,21.86
2016-10-18T04:48:05.907Z,21.93
2016-10-18T04:49:16.524Z,21.91
2016-10-18T04:50:27.059Z,21.89
2016-10-18T04:51:37.595Z,21.89
2016-10-18T04:52:48.128Z,21.83
2016-10-18T04:53:58.769Z,21.77
2016-10-18T04:55:09.308Z,21.91
2016-10-18T04:56:19.877Z,21.96
2016-10-18T04:57:30.408Z,21.96
2016-10-18T04:58:40.951Z,21.91
2016-10-18T04:59:51.484Z,22.02
2016-10-18T05:01:02.015Z,22.11
2016-10-18T05:02:13.055Z,21.98
2016-10-18T05:03:23.600Z,22.02
2016-10-18T05:04:34.136Z,22.11
2016-10-18T05:05:44.713Z,22.02
2016-10-18T05:06:55.165Z,22.01
2016-10-18T05:08:05.611Z,22.09
2016-10-18T05:09:16.056Z,22.08
2016-10-18T05:10:26.504Z,22.14
2016-10-18T05:11:36.980Z,22.15
2016-10-18T05:12:47.424Z,22.26
2016-10-18T05:13:57.865Z,22.27
2016-10-18T05:15:08.321Z,22.23
2016-10-18T05:16:33.406Z,22.36
2016-10-18T05:17:43.850Z,22.39
2016-10-18T05:18:54.293Z,22.45
2016-10-18T05:20:04.738Z,22.44
2016-10-18T05:21:29.761Z,22.45
2016-10-18T05:22:40.204Z,22.46
2016-10-18T05:23:50.677Z,22.38
2016-10-18T05:25:01.124Z,22.36
2016-10-18T05:26:11.568Z,22.3
2016-10-18T05:27:22.121Z,22.26
2016-10-18T05:28:32.566Z,22.11
2016-10-18T05:29:43.501Z,22.12
2016-10-18T05:30:53.945Z,22.19
2016-10-18T05:32:04.392Z,22.29
2016-10-18T05:33:29.477Z,22.12
2016-10-18T05:34:39.926Z,22.08
2016-10-18T05:35:50.371Z,22.08
2016-10-18T05:37:01.304Z,22.05
2016-10-18T05:38:11.849Z,22.02
2016-10-18T05:39:22.296Z,22.06
2016-10-18T05:40:32.770Z,22.04
2016-10-18T05:41:43.224Z,22.02
2016-10-18T05:42:53.666Z,21.99
2016-10-18T05:44:04.209Z,21.99
2016-10-18T05:45:14.667Z,21.99
2016-10-18T05:46:25.109Z,21.98
2016-10-18T05:47:35.551Z,22.05
2016-10-18T05:48:46.041Z,22.01
2016-10-18T05:49:56.581Z,21.96
2016-10-18T05:51:07.023Z,21.91
2016-10-18T05:52:17.475Z,21.96
2016-10-18T05:53:27.920Z,21.91
2016-10-18T05:54:38.404Z,21.82
2016-10-18T05:55:48.846Z,21.85
2016-10-18T05:56:59.292Z,21.79
2016-10-18T05:58:09.765Z,21.86
2016-10-18T05:59:20.220Z,21.79
2016-10-18T06:00:30.664Z,21.81
2016-10-18T06:01:41.206Z,21.98
2016-10-18T06:02:51.683Z,21.86
2016-10-18T06:04:02.168Z,21.94
2016-10-18T06:05:12.614Z,21.94
2016-10-18T06:06:23.060Z,21.94
2016-10-18T06:07:33.535Z,22.01
2016-10-18T06:10:08.967Z,22.04
2016-10-18T06:11:19.412Z,21.94
2016-10-18T06:12:29.962Z,22.02
2016-10-18T06:13:54.950Z,21.98
2016-10-18T06:15:05.397Z,22.04
2016-10-18T06:16:15.844Z,22.04
2016-10-18T06:17:26.290Z,22.04
2016-10-18T06:18:36.734Z,22.02
2016-10-18T06:19:47.677Z,22.04
2016-10-18T06:20:58.121Z,22.05
2016-10-18T06:22:09.094Z,22.06
2016-10-18T06:23:19.638Z,22.12
2016-10-18T06:24:30.085Z,22.17
2016-10-18T06:25:40.526Z,22.11
2016-10-18T06:26:50.973Z,22.12
2016-10-18T06:28:01.426Z,22.12
2016-10-18T06:29:11.875Z,22.14
2016-10-18T06:30:22.316Z,22.09
2016-10-18T06:31:32.768Z,22.11
2016-10-18T06:32:57.754Z,22.11
2016-10-18T06:34:08.302Z,22.08
2016-10-18T06:35:18.756Z,22.09
2016-10-18T06:36:29.204Z,22.01
2016-10-18T06:37:54.193Z,21.98
2016-10-18T06:39:04.640Z,21.94
2016-10-18T06:40:30.120Z,22.04
2016-10-18T06:41:40.563Z,21.99
2016-10-18T06:42:51.001Z,22.11
2016-10-18T06:44:01.452Z,22.12
2016-10-18T06:45:12.049Z,22.19
2016-10-18T06:46:22.531Z,22.24
2016-10-18T06:47:33.466Z,22.21
2016-10-18T06:48:43.913Z,22.15
2016-10-18T06:49:54.358Z,22.21
2016-10-18T06:51:04.901Z,22.15
2016-10-18T06:52:15.291Z,22.14
2016-10-18T06:53:25.619Z,22.12
2016-10-18T06:54:35.979Z,22.04
2016-10-18T06:55:46.308Z,22.06
2016-10-18T06:56:56.730Z,22.01
2016-10-18T06:58:07.061Z,22.2
2016-10-18T06:59:17.387Z,22.19
2016-10-18T07:00:28.206Z,22.17
2016-10-18T07:01:38.532Z,22.15
2016-10-18T07:03:03.425Z,22.14
2016-10-18T07:04:13.751Z,22.11
2016-10-18T07:05:24.077Z,22.21
2016-10-18T07:06:34.401Z,22.2
2016-10-18T07:07:44.729Z,22.29
2016-10-18T07:08:55.063Z,22.38
2016-10-18T07:10:05.389Z,22.29
2016-10-18T07:11:15.717Z,22.24
2016-10-18T07:12:26.044Z,22.21
2016-10-18T07:13:36.412Z,22.17
2016-10-18T07:14:46.743Z,22.14
2016-10-18T07:15:57.066Z,22.19
2016-10-18T07:17:07.394Z,22.2
2016-10-18T07:18:17.723Z,22.15
2016-10-18T07:19:28.054Z,22.15
2016-10-18T07:20:38.476Z,22.14
2016-10-18T07:21:48.859Z,22.17
2016-10-18T07:22:59.312Z,22.11
2016-10-18T07:24:09.727Z,22.21
2016-10-18T07:25:34.790Z,22.14
2016-10-18T07:26:45.206Z,22.11
2016-10-18T07:27:55.621Z,22.27
2016-10-18T07:29:20.586Z,22.3
2016-10-18T07:30:31.007Z,22.15
2016-10-18T07:31:41.525Z,22.15
2016-10-18T07:32:51.941Z,22.15
2016-10-18T07:34:02.364Z,22.14
2016-10-18T07:35:12.858Z,22.15
2016-10-18T07:36:23.271Z,22.2
2016-10-18T07:37:33.689Z,22.2
2016-10-18T07:38:44.104Z,22.17
2016-10-18T07:39:54.518Z,22.14
2016-10-18T07:41:04.941Z,22.26
2016-10-18T07:42:15.508Z,22.27
2016-10-18T07:43:25.919Z,22.3
2016-10-18T07:44:36.375Z,22.3
2016-10-18T07:45:46.789Z,22.31
2016-10-18T07:46:57.206Z,22.35
2016-10-18T07:48:07.729Z,22.27
2016-10-18T07:49:18.147Z,22.36
2016-10-18T07:50:28.568Z,22.27
2016-10-18T07:51:38.984Z,22.42
2016-10-18T07:53:04.084Z,22.29
2016-10-18T07:54:14.499Z,22.29
2016-10-18T07:55:24.919Z,22.3
2016-10-18T07:56:49.884Z,22.44
2016-10-18T07:58:00.304Z,22.44
2016-10-18T07:59:10.824Z,22.29
2016-10-18T08:00:21.281Z,22.3
2016-10-18T08:01:31.701Z,22.27
2016-10-18T08:02:42.162Z,22.21
2016-10-18T08:03:52.717Z,22.2
2016-10-18T08:05:03.169Z,22.3
2016-10-18T08:06:13.529Z,22.31
2016-10-18T08:07:23.854Z,22.38
2016-10-18T08:08:34.183Z,22.42
2016-10-18T08:09:44.640Z,22.42
2016-10-18T08:10:54.963Z,22.29
2016-10-18T08:12:05.288Z,22.29
2016-10-18T08:13:15.616Z,22.19
2016-10-18T08:14:25.964Z,22.33
2016-10-18T08:15:36.387Z,22.19
2016-10-18T08:16:46.713Z,22.19
2016-10-18T08:17:57.037Z,22.01
2016-10-18T08:19:07.364Z,21.99
2016-10-18T08:20:32.257Z,22.04
2016-10-18T08:21:42.715Z,22.02
2016-10-18T08:22:53.045Z,21.98
2016-10-18T08:24:03.408Z,22.04
2016-10-18T08:25:13.735Z,22.01
2016-10-18T08:26:24.161Z,21.99
2016-10-18T08:29:13.989Z,22.09
2016-10-18T08:30:24.349Z,21.91
2016-10-18T08:31:34.815Z,21.91
2016-10-18T08:32:45.145Z,21.99
2016-10-18T08:33:55.469Z,21.91
2016-10-18T08:35:05.885Z,21.89
2016-10-18T08:36:16.206Z,21.89
2016-10-18T08:37:26.635Z,21.93
2016-10-18T08:38:36.965Z,21.98
2016-10-18T08:40:01.862Z,21.86
2016-10-18T08:41:12.191Z,21.89
2016-10-18T08:42:23.697Z,21.9
2016-10-18T08:43:34.027Z,21.91
2016-10-18T08:44:44.350Z,21.89
2016-10-18T08:45:54.680Z,21.86
2016-10-18T08:48:30.003Z,21.81
2016-10-18T08:49:40.326Z,21.89
2016-10-18T08:51:05.255Z,21.96
2016-10-18T08:52:15.665Z,21.96
2016-10-18T08:53:26.180Z,21.99
2016-10-18T08:54:36.598Z,21.94
2016-10-18T08:55:47.016Z,21.94
2016-10-18T08:56:57.437Z,21.93
2016-10-18T08:58:07.848Z,22.05
2016-10-18T08:59:18.263Z,22.02
2016-10-18T09:00:28.677Z,21.98
2016-10-18T09:01:39.090Z,22.02
2016-10-18T09:02:49.506Z,21.99
2016-10-18T09:03:59.964Z,21.99
2016-10-18T09:05:10.521Z,22.02
2016-10-18T09:06:20.980Z,22.05
2016-10-18T09:07:31.398Z,22.02
2016-10-18T09:08:41.818Z,22.05
2016-10-18T09:09:52.273Z,22.02
2016-10-18T09:11:02.689Z,22.02
2016-10-18T09:12:13.107Z,22.04
2016-10-18T09:13:23.519Z,22.09
2016-10-18T09:14:33.938Z,22.2
2016-10-18T09:15:44.355Z,22.15
2016-10-18T09:17:09.421Z,22.27
2016-10-18T09:18:19.833Z,22.27
2016-10-18T09:19:30.300Z,22.35
2016-10-18T09:20:40.716Z,22.35
2016-10-18T09:21:51.184Z,22.35
2016-10-18T09:23:16.150Z,22.42
2016-10-18T09:24:26.569Z,22.36
2016-10-18T09:25:36.982Z,22.42
2016-10-18T09:26:47.400Z,22.41
2016-10-18T09:27:57.832Z,22.31
2016-10-18T09:29:08.267Z,22.41
2016-10-18T09:30:19.251Z,22.42
2016-10-18T09:31:29.670Z,22.42
2016-10-18T09:32:40.093Z,22.41
2016-10-18T09:33:50.528Z,22.42
2016-10-18T09:35:00.949Z,22.39
2016-10-18T09:36:11.796Z,22.41
2016-10-18T09:37:22.123Z,22.39
2016-10-18T09:38:32.449Z,22.42
2016-10-18T09:39:42.781Z,22.39
2016-10-18T09:40:53.108Z,22.42
2016-10-18T09:42:03.431Z,22.42
2016-10-18T09:43:13.756Z,22.45
2016-10-18T09:44:24.120Z,22.45
2016-10-18T09:45:34.544Z,22.54
2016-10-18T09:46:44.864Z,22.52
2016-10-18T09:47:55.199Z,22.57
2016-10-18T09:49:05.526Z,22.54
2016-10-18T09:50:15.851Z,22.54
2016-10-18T09:51:26.277Z,22.6
2016-10-18T09:52:36.636Z,22.64
2016-10-18T09:53:46.962Z,22.74
2016-10-18T09:54:57.299Z,22.75
2016-10-18T09:56:07.635Z,22.72
2016-10-18T09:57:17.959Z,22.74
2016-10-18T09:58:28.320Z,22.75
2016-10-18T09:59:38.652Z,22.74
2016-10-18T10:00:48.995Z,22.75
2016-10-18T10:01:59.357Z,22.88
2016-10-18T10:03:09.716Z,22.74
2016-10-18T10:04:20.048Z,22.85
2016-10-18T10:05:30.430Z,22.93
2016-10-18T10:06:55.321Z,22.91
2016-10-18T10:08:05.650Z,22.96
2016-10-18T10:09:15.981Z,22.89
2016-10-18T10:10:26.307Z,22.96
2016-10-18T10:11:36.643Z,22.91
2016-10-18T10:12:47.027Z,22.97
2016-10-18T10:13:57.477Z,22.89
2016-10-18T10:15:07.938Z,23.14
2016-10-18T10:16:18.385Z,23.06
2016-10-18T10:17:43.379Z,23.07
2016-10-18T10:18:53.829Z,23
2016-10-18T10:20:04.275Z,23.09
2016-10-18T10:21:14.771Z,23.12
2016-10-18T10:22:25.310Z,23.26
2016-10-18T10:23:35.856Z,23.25
2016-10-18T10:25:00.921Z,23.21
2016-10-18T10:26:11.461Z,23.14
2016-10-18T10:27:21.994Z,23.15
2016-10-18T10:28:32.535Z,23.14
2016-10-18T10:29:43.073Z,23.11
2016-10-18T10:30:53.746Z,23.16
2016-10-18T10:32:04.282Z,23.21
2016-10-18T10:33:14.847Z,23.29
2016-10-18T10:34:25.384Z,23.35
2016-10-18T10:35:35.919Z,23.41
2016-10-18T10:36:47.049Z,23.31
2016-10-18T10:37:57.594Z,23.32
2016-10-18T10:39:08.131Z,23.42
2016-10-18T10:40:18.661Z,23.42
2016-10-18T10:41:29.200Z,23.45
2016-10-18T10:42:39.843Z,23.49
2016-10-18T10:43:50.414Z,23.47
2016-10-18T10:45:00.948Z,23.49
2016-10-18T10:46:11.485Z,23.63
2016-10-18T10:47:22.016Z,23.72
2016-10-18T10:48:32.602Z,23.67
2016-10-18T10:49:43.139Z,23.75
2016-10-18T10:50:53.677Z,23.81
2016-10-18T10:53:29.353Z,23.69
2016-10-18T10:54:54.496Z,23.9
2016-10-18T10:56:05.040Z,23.75
2016-10-18T10:57:15.583Z,23.82
2016-10-18T10:58:26.125Z,23.81
2016-10-18T10:59:36.805Z,23.77
2016-10-18T11:00:47.344Z,23.77
2016-10-18T11:01:57.881Z,23.79
2016-10-18T11:03:08.457Z,23.78
2016-10-18T11:04:18.990Z,23.72
2016-10-18T11:05:29.545Z,23.64
2016-10-18T11:06:39.993Z,23.75
2016-10-18T11:07:50.434Z,23.72
2016-10-18T11:09:00.879Z,23.77
2016-10-18T11:10:25.862Z,23.86
2016-10-18T11:11:36.308Z,23.84
2016-10-18T11:12:46.762Z,23.86
2016-10-18T11:13:57.208Z,23.92
2016-10-18T11:16:47.185Z,24.11
2016-10-18T11:17:57.675Z,24.12
2016-10-18T11:20:47.874Z,24.06
2016-10-18T11:21:58.330Z,24.12
2016-10-18T11:23:08.770Z,24.23
2016-10-18T11:24:19.217Z,24.23
2016-10-18T11:25:29.707Z,24.24
2016-10-18T11:26:40.150Z,24.27
2016-10-18T11:27:50.598Z,24.33
2016-10-18T11:29:01.044Z,24.31
2016-10-18T11:30:11.498Z,24.45
2016-10-18T11:31:21.941Z,24.45
2016-10-18T11:32:32.387Z,24.49
2016-10-18T11:33:42.831Z,24.61
2016-10-18T11:34:53.277Z,24.53
2016-10-18T11:36:03.721Z,24.66
2016-10-18T11:37:14.166Z,24.66
2016-10-18T11:38:24.652Z,24.67
2016-10-18T11:39:35.125Z,24.75
2016-10-18T11:40:45.577Z,24.84
2016-10-18T11:41:56.025Z,24.94
2016-10-18T11:43:06.472Z,24.98
2016-10-18T11:44:17.017Z,24.98
2016-10-18T11:45:27.463Z,25.11
2016-10-18T11:46:37.908Z,25.19
2016-10-18T11:47:48.354Z,25.24
2016-10-18T11:48:58.796Z,25.31
2016-10-18T11:50:09.342Z,25.38
2016-10-18T11:51:19.787Z,25.31
2016-10-18T11:52:30.231Z,25.42
2016-10-18T11:53:40.680Z,25.56
2016-10-18T11:54:51.127Z,25.71
2016-10-18T11:56:01.609Z,25.82
2016-10-18T11:57:12.054Z,25.9
2016-10-18T11:58:37.530Z,26.09
2016-10-18T11:59:47.980Z,26.27
2016-10-18T12:00:58.691Z,26.31
2016-10-18T12:02:09.254Z,26.41
2016-10-18T12:03:19.697Z,26.51
2016-10-18T12:04:30.153Z,26.64
2016-10-18T12:05:55.147Z,26.69
2016-10-18T12:07:05.699Z,26.84
2016-10-18T12:08:16.150Z,27.12
2016-10-18T12:09:26.597Z,27.18
2016-10-18T12:10:37.046Z,27.31
2016-10-18T12:11:47.493Z,27.5
2016-10-18T12:12:57.950Z,27.63
2016-10-18T12:14:08.401Z,27.77
2016-10-18T12:15:18.843Z,27.96
2016-10-18T12:16:29.290Z,28.23
2016-10-18T12:17:54.779Z,28.42
2016-10-18T12:19:05.234Z,28.64
2016-10-18T12:20:15.719Z,28.74
2016-10-18T12:21:26.174Z,28.73
2016-10-18T12:22:36.630Z,28.85
2016-10-18T12:23:47.076Z,28.77
2016-10-18T12:24:57.533Z,28.79
2016-10-18T12:26:08.011Z,28.6
2016-10-18T12:27:18.429Z,28.58
2016-10-18T12:28:28.872Z,28.74
2016-10-18T12:29:39.199Z,28.97
2016-10-18T12:30:49.528Z,28.91
2016-10-18T12:32:14.429Z,29.07
2016-10-18T12:33:24.856Z,29.18
2016-10-18T12:34:35.192Z,29.27
2016-10-18T12:35:45.562Z,29.45
2016-10-18T12:36:55.890Z,29.6
2016-10-18T12:38:06.695Z,29.79
2016-10-18T12:39:17.021Z,29.86
2016-10-18T12:40:27.345Z,29.99
2016-10-18T12:41:37.675Z,30.21
2016-10-18T12:42:48.009Z,30.22
2016-10-18T12:44:12.911Z,30.34
2016-10-18T12:45:23.246Z,30.45
2016-10-18T12:46:33.578Z,30.75
2016-10-18T12:47:43.906Z,30.75
2016-10-18T12:48:54.237Z,30.91
2016-10-18T12:50:19.616Z,30.97
2016-10-18T12:51:29.993Z,31.01
2016-10-18T12:52:40.333Z,31.18
2016-10-18T12:53:50.667Z,31.09
2016-10-18T12:55:01.132Z,31.25
2016-10-18T12:56:11.632Z,31.37
2016-10-18T12:57:22.019Z,31.45
2016-10-18T12:58:46.916Z,31.67
2016-10-18T12:59:57.263Z,31.76
2016-10-18T13:01:07.658Z,31.82
2016-10-18T13:02:18.112Z,31.82
2016-10-18T13:03:29.059Z,31.88
2016-10-18T13:04:40.013Z,31.95
2016-10-18T13:05:50.470Z,32.09
2016-10-18T13:07:00.926Z,32.14
2016-10-18T13:08:11.378Z,32.13
2016-10-18T13:09:36.386Z,32.09
2016-10-18T13:10:46.944Z,32.1
2016-10-18T13:11:57.406Z,31.98
2016-10-18T13:13:07.856Z,32.03
2016-10-18T13:14:18.306Z,32.13
2016-10-18T13:15:28.806Z,32.22
2016-10-18T13:16:39.258Z,32.24
2016-10-18T13:17:50.210Z,32.44
2016-10-18T13:19:00.669Z,32.72
2016-10-18T13:20:11.131Z,32.9
2016-10-18T13:21:21.586Z,32.93
2016-10-18T13:22:32.071Z,33.14
2016-10-18T13:23:42.525Z,33.28
2016-10-18T13:24:52.972Z,33.24
2016-10-18T13:26:03.421Z,33.5
2016-10-18T13:27:13.873Z,33.59
2016-10-18T13:28:24.333Z,33.57
2016-10-18T13:29:34.792Z,33.71
2016-10-18T13:30:45.302Z,33.9
2016-10-18T13:31:55.852Z,34.05
2016-10-18T13:33:06.863Z,33.94
2016-10-18T13:34:17.290Z,33.96
2016-10-18T13:35:27.863Z,33.77
2016-10-18T13:36:38.495Z,33.66
2016-10-18T13:37:49.103Z,33.5
2016-10-18T13:38:59.649Z,33.57
2016-10-18T13:40:10.281Z,33.72
2016-10-18T13:41:20.834Z,33.79
2016-10-18T13:42:31.391Z,33.92
2016-10-18T13:43:41.948Z,34.09
2016-10-18T13:44:52.496Z,34.15
2016-10-18T13:46:03.141Z,34.19
2016-10-18T13:47:13.698Z,34.15
2016-10-18T13:48:24.244Z,34.19
2016-10-18T13:49:49.839Z,34.03
2016-10-18T13:51:00.489Z,34.16
2016-10-18T13:52:11.076Z,33.9
2016-10-18T13:53:21.702Z,33.68
2016-10-18T13:54:32.256Z,33.77
2016-10-18T13:55:43.295Z,33.79
2016-10-18T13:56:53.842Z,33.66
2016-10-18T13:58:04.395Z,33.55
2016-10-18T13:59:14.933Z,33.57
2016-10-18T14:00:25.489Z,33.53
2016-10-18T14:01:36.035Z,33.43
2016-10-18T14:02:46.581Z,33.71
2016-10-18T14:03:57.144Z,33.72
2016-10-18T14:05:07.637Z,33.52
2016-10-18T14:06:18.091Z,33.77
2016-10-18T14:07:28.486Z,33.63
2016-10-18T14:08:38.918Z,33.66
2016-10-18T14:09:49.247Z,33.87
2016-10-18T14:10:59.587Z,34.11
2016-10-18T14:12:09.920Z,34.19
2016-10-18T14:13:34.820Z,34.23
2016-10-18T14:14:45.154Z,34.4
2016-10-18T14:15:55.488Z,34.46
2016-10-18T14:17:05.826Z,34.56
2016-10-18T14:18:16.156Z,34.45
2016-10-18T14:19:41.064Z,34.52
2016-10-18T14:20:51.399Z,34.63
2016-10-18T14:22:01.736Z,34.72
2016-10-18T14:23:12.070Z,34.87
2016-10-18T14:24:22.400Z,34.87
2016-10-18T14:25:32.740Z,34.83
2016-10-18T14:26:43.070Z,34.75
2016-10-18T14:27:53.410Z,34.78
2016-10-18T14:29:03.739Z,34.83
2016-10-18T14:30:14.651Z,34.84
2016-10-18T14:31:24.993Z,34.53
2016-10-18T14:32:35.330Z,34.6
2016-10-18T14:33:45.663Z,34.76
2016-10-18T14:34:56.005Z,34.81
2016-10-18T14:36:06.440Z,35.03
2016-10-18T14:37:16.774Z,34.99
2016-10-18T14:38:41.676Z,35.22
2016-10-18T14:39:52.048Z,35.25
2016-10-18T14:41:17.051Z,35.34
2016-10-18T14:42:28.490Z,35.56
2016-10-18T14:43:38.844Z,35.85
2016-10-18T14:44:49.734Z,35.85
2016-10-18T14:46:00.125Z,35.8
2016-10-18T14:47:10.473Z,35.89
2016-10-18T14:49:46.230Z,35.85
2016-10-18T14:50:56.616Z,35.73
2016-10-18T14:52:07.147Z,35.73
2016-10-18T14:53:17.570Z,35.59
2016-10-18T14:54:28.001Z,35.5
2016-10-18T14:55:38.429Z,35.34
2016-10-18T14:57:03.407Z,35.34
2016-10-18T14:58:13.841Z,35.13
2016-10-18T14:59:24.264Z,34.83
2016-10-18T15:00:34.695Z,34.76
2016-10-18T15:01:45.119Z,34.8
2016-10-18T15:02:55.647Z,34.64
2016-10-18T15:04:06.083Z,34.75
2016-10-18T15:05:16.517Z,34.81
2016-10-18T15:06:26.975Z,34.73
2016-10-18T15:07:37.395Z,34.71
2016-10-18T15:08:47.831Z,34.63
2016-10-18T15:09:58.255Z,34.4
2016-10-18T15:11:08.712Z,34.18
2016-10-18T15:12:19.142Z,34.16
2016-10-18T15:13:29.565Z,34.14
2016-10-18T15:14:39.991Z,34.16
2016-10-18T15:15:50.414Z,34.21
2016-10-18T15:17:00.838Z,34.11
2016-10-18T15:18:11.259Z,34.3
2016-10-18T15:19:21.685Z,34.16
2016-10-18T15:20:32.217Z,34.16
2016-10-18T15:21:57.226Z,34.14
2016-10-18T15:23:07.652Z,34.15
2016-10-18T15:24:18.559Z,34.09
2016-10-18T15:25:28.985Z,34.05
2016-10-18T15:26:39.412Z,34.05
2016-10-18T15:27:49.841Z,34.01
2016-10-18T15:29:00.328Z,34.11
2016-10-18T15:30:10.763Z,34.01
2016-10-18T15:31:21.198Z,34.05
2016-10-18T15:32:31.618Z,34.14
2016-10-18T15:33:42.046Z,34.16
2016-10-18T15:34:52.456Z,34.18
2016-10-18T15:36:02.789Z,34.16
2016-10-18T15:37:13.114Z,34.11
2016-10-18T15:38:23.480Z,33.96
2016-10-18T15:39:33.813Z,33.81
2016-10-18T15:40:44.148Z,33.7